Time;durP1;ratioP1;P1;durP2;ratioP2;P2;SDS_P1;SDS_P2;PMS_P1;PMS_P2;Temp;Humidity;BMP_temperature;BMP_pressure;BME280_temperature;BME280_humidity;BME280_pressure;Samples;Min_cycle;Max_cycle;Signal;HPM_P1;HPM_P2
2024/03/27 00:00:31;;;;;;;0.10;0.10;;;;;;;15.76;33.28;92138.41;6139478;23;20036;-87
2024/03/27 00:02:57;;;;;;;0.20;0.20;;;;;;;15.19;34.81;92120.03;6187958;23;20008;-87
2024/03/27 00:05:23;;;;;;;0.25;0.20;;;;;;;15.38;34.33;92116.63;6215104;22;20008;-87
2024/03/27 00:07:49;;;;;;;1.13;0.28;;;;;;;15.27;34.26;92099.50;6158097;23;20017;-86
2024/03/27 00:10:16;;;;;;;0.73;0.13;;;;;;;15.50;33.50;92072.47;6158271;23;20009;-87
2024/03/27 00:12:41;;;;;;;0.15;0.15;;;;;;;15.26;33.30;92062.09;6191648;22;20020;-87
2024/03/27 00:15:12;;;;;;;0.15;0.10;;;;;;;15.15;34.46;92058.81;6138593;23;20016;-86
2024/03/27 00:17:37;;;;;;;0.70;0.20;;;;;;;15.18;34.65;92060.09;6163214;23;20017;-87
2024/03/27 00:20:06;;;;;;;0.57;0.10;;;;;;;15.24;34.36;92064.97;6163076;23;20015;-87
2024/03/27 00:24:58;;;;;;;1.33;0.20;;;;;;;14.96;35.15;92052.81;6209519;22;20041;-87
2024/03/27 00:27:23;;;;;;;0.20;0.10;;;;;;;15.13;34.92;92063.56;6189253;23;20008;-87
2024/03/27 00:29:50;;;;;;;0.55;0.20;;;;;;;14.83;35.25;92051.66;6188981;23;20034;-86
2024/03/27 00:34:46;;;;;;;0.10;0.10;;;;;;;15.13;34.48;92049.69;6208579;23;20020;-87
2024/03/27 00:37:11;;;;;;;2.33;0.20;;;;;;;15.02;34.89;92038.56;6138736;23;20007;-86
2024/03/27 00:39:37;;;;;;;0.55;0.10;;;;;;;14.83;35.16;92013.19;6138520;23;20017;-86
2024/03/27 00:42:04;;;;;;;2.83;0.08;;;;;;;15.10;34.29;92024.88;6162839;23;20005;-87
2024/03/27 00:52:08;;;;;;;0.10;0.10;;;;;;;15.01;34.04;92016.09;6197615;22;20009;-87
2024/03/27 00:54:34;;;;;;;0.30;0.20;;;;;;;14.97;34.19;92009.88;6187200;23;20047;-87
2024/03/27 00:56:59;;;;;;;0.17;0.15;;;;;;;14.95;34.91;92014.63;6162193;23;20111;-86
2024/03/27 00:59:25;;;;;;;1.33;0.22;;;;;;;14.70;36.00;92007.88;6138126;23;20040;-86
2024/03/27 01:04:16;;;;;;;0.10;0.10;;;;;;;14.38;35.95;91999.59;6205977;22;20039;-87
2024/03/27 01:06:42;;;;;;;2.13;0.25;;;;;;;14.23;36.85;91991.94;6162037;23;20027;-87
2024/03/27 01:09:08;;;;;;;1.50;0.20;;;;;;;14.59;35.56;91984.47;6138224;23;20017;-87
2024/03/27 01:11:33;;;;;;;0.10;0.10;;;;;;;14.36;36.53;91983.41;6161930;23;20001;-87
2024/03/27 01:13:59;;;;;;;0.10;0.10;;;;;;;14.20;36.91;91984.63;6186419;23;20008;-87
2024/03/27 01:18:53;;;;;;;1.50;0.10;;;;;;;14.31;36.54;91983.47;6209094;23;20059;-88
2024/03/27 01:21:19;;;;;;;0.20;0.10;;;;;;;14.58;36.09;92003.06;6162094;23;20242;-87
2024/03/27 01:23:45;;;;;;;0.40;0.17;;;;;;;14.80;34.95;92008.53;6138507;23;20009;-87
2024/03/27 01:26:10;;;;;;;0.10;0.10;;;;;;;14.25;36.24;92002.88;6138503;23;20008;-87
2024/03/27 01:33:37;;;;;;;0.20;0.10;;;;;;;14.20;36.72;92006.34;6177161;23;20020;-87
2024/03/27 01:36:06;;;;;;;0.45;0.10;;;;;;;14.64;35.81;92002.72;6137637;23;20078;-86
2024/03/27 01:38:31;;;;;;;0.65;0.20;;;;;;;14.58;36.00;91992.59;6162593;23;20011;-87
2024/03/27 01:40:57;;;;;;;0.40;0.20;;;;;;;14.19;36.62;91981.25;6162544;23;20013;-87
2024/03/27 01:48:23;;;;;;;0.43;0.10;;;;;;;14.18;36.52;91991.97;6183421;23;20029;-88
2024/03/27 01:50:53;;;;;;;0.77;0.13;;;;;;;14.27;36.29;91988.47;6133505;23;20005;-88
2024/03/27 01:53:21;;;;;;;1.65;0.10;;;;;;;13.97;36.89;92002.66;6132574;23;20005;-87
2024/03/27 01:55:47;;;;;;;0.32;0.20;;;;;;;13.74;37.41;91983.28;6157244;23;20017;-86
2024/03/27 01:58:16;;;;;;;0.30;0.10;;;;;;;13.75;37.52;91995.31;6217377;22;20073;-87
2024/03/27 02:00:44;;;;;;;0.20;0.10;;;;;;;13.61;38.20;91983.94;6138551;23;20013;-87
2024/03/27 02:05:36;;;;;;;0.30;0.10;;;;;;;13.31;38.88;91954.44;6177610;23;20033;-87
2024/03/27 02:08:02;;;;;;;1.90;0.20;;;;;;;13.64;38.16;91955.44;6132401;23;20251;-87
2024/03/27 02:10:28;;;;;;;0.10;0.10;;;;;;;13.43;38.54;91935.81;6156514;23;20005;-86
2024/03/27 02:15:19;;;;;;;0.43;0.10;;;;;;;13.51;38.60;91963.91;6179697;23;20035;-87
2024/03/27 02:17:44;;;;;;;0.57;0.17;;;;;;;13.55;38.65;91956.31;6108552;23;20079;-86
2024/03/27 02:20:10;;;;;;;0.55;0.10;;;;;;;13.59;38.23;91941.66;6132542;23;20009;-86
2024/03/27 02:22:36;;;;;;;0.20;0.20;;;;;;;13.40;38.69;91926.69;6132373;23;20005;-87
2024/03/27 02:25:19;;;;;;;1.20;0.30;;;;;;;13.13;39.27;91929.75;6108183;23;20059;-87
2024/03/27 02:27:45;;;;;;;0.52;0.20;;;;;;;13.38;39.02;91939.22;6156675;23;20072;-86
2024/03/27 02:30:11;;;;;;;0.95;0.10;;;;;;;13.47;38.84;91942.81;6132040;23;20013;-86
2024/03/27 02:32:36;;;;;;;0.95;0.20;;;;;;;13.43;39.09;91930.59;6157170;23;20059;-87
2024/03/27 02:37:30;;;;;;;0.13;0.10;;;;;;;13.19;40.18;91936.47;6180570;23;20036;-87
2024/03/27 02:39:56;;;;;;;0.32;0.10;;;;;;;13.44;40.22;91934.75;6132514;23;20005;-87
2024/03/27 02:42:21;;;;;;;0.10;0.10;;;;;;;13.50;39.45;91918.00;6157611;23;20008;-88
2024/03/27 02:49:50;;;;;;;0.63;0.17;;;;;;;13.02;40.38;91887.34;6192093;22;20029;-87
2024/03/27 02:57:16;;;;;;;1.88;0.10;;;;;;;13.23;40.20;91877.50;6206539;23;20265;-87
2024/03/27 02:59:42;;;;;;;0.43;0.20;;;;;;;12.95;40.55;91876.44;6162905;23;20017;-87
2024/03/27 03:07:08;;;;;;;0.40;0.30;;;;;;;12.72;41.25;91817.94;6176983;23;20028;-87
2024/03/27 03:09:37;;;;;;;0.22;0.10;;;;;;;12.79;41.20;91831.44;6137889;23;20016;-87
2024/03/27 03:12:04;;;;;;;0.57;0.10;;;;;;;12.93;40.89;91804.72;6186504;23;20043;-87
2024/03/27 03:14:30;;;;;;;0.60;0.10;;;;;;;12.62;42.04;91824.03;6161884;23;20005;-87
2024/03/27 03:16:55;;;;;;;0.38;0.10;;;;;;;12.46;42.41;91823.34;6186773;23;20012;-87
2024/03/27 03:24:31;;;;;;;1.67;0.20;;;;;;;12.55;41.43;91797.50;6209225;22;20016;-87
2024/03/27 03:26:58;;;;;;;0.10;0.10;;;;;;;12.68;41.50;91806.50;6136920;23;20066;-87
2024/03/27 03:29:26;;;;;;;0.75;0.10;;;;;;;12.95;40.29;91805.25;6162144;23;20008;-87
2024/03/27 03:31:52;;;;;;;0.47;0.28;;;;;;;12.78;40.76;91805.66;6188055;23;20008;-87
2024/03/27 03:36:43;;;;;;;0.40;0.20;;;;;;;13.13;39.46;91812.34;6230014;22;20103;-87
2024/03/27 03:39:08;;;;;;;1.27;0.10;;;;;;;13.13;39.77;91817.56;6194013;23;20276;-86
2024/03/27 03:41:34;;;;;;;0.22;0.10;;;;;;;13.06;40.59;91822.31;6193426;23;20000;-87
2024/03/27 03:43:59;;;;;;;1.27;0.20;;;;;;;13.28;40.18;91814.78;6219369;23;20007;-86
2024/03/27 03:46:25;;;;;;;0.22;0.10;;;;;;;13.05;40.41;91831.97;6193814;23;20018;-87
2024/03/27 03:51:25;;;;;;;0.60;0.20;;;;;;;12.92;40.67;91822.19;6211563;23;20028;-85
2024/03/27 03:53:55;;;;;;;2.45;0.20;;;;;;;13.24;40.07;91819.00;6189173;23;20011;-85
2024/03/27 03:56:21;;;;;;;0.20;0.20;;;;;;;12.86;40.95;91821.47;6163076;23;20013;-85
2024/03/27 03:58:46;;;;;;;0.15;0.10;;;;;;;13.09;40.47;91821.78;6164136;23;20245;-86
2024/03/27 04:01:12;;;;;;;0.50;0.10;;;;;;;12.86;40.94;91808.41;6163967;23;20035;-87
2024/03/27 04:06:03;;;;;;;0.40;0.20;;;;;;;12.59;41.74;91782.84;6202020;23;20087;-87
2024/03/27 04:08:28;;;;;;;1.42;0.10;;;;;;;12.77;41.37;91801.47;6163791;23;20234;-86
2024/03/27 04:10:54;;;;;;;0.10;0.10;;;;;;;12.66;42.04;91766.88;6163600;23;20028;-87
2024/03/27 04:13:19;;;;;;;1.75;0.20;;;;;;;12.40;42.76;91795.00;6163817;23;20020;-87
2024/03/27 04:15:47;;;;;;;0.90;0.10;;;;;;;12.60;42.10;91826.09;6163737;23;20012;-87
2024/03/27 04:20:49;;;;;;;0.25;0.20;;;;;;;12.57;42.50;91821.44;6124218;23;20029;-87
2024/03/27 04:25:50;;;;;;;0.22;0.20;;;;;;;12.32;43.51;91822.44;6209074;22;20028;-87
2024/03/27 04:28:18;;;;;;;0.20;0.13;;;;;;;12.26;44.15;91839.91;6188843;23;20059;-87
2024/03/27 04:30:44;;;;;;;0.20;0.10;;;;;;;12.48;42.64;91844.72;6138633;23;20079;-88
2024/03/27 04:33:10;;;;;;;0.47;0.20;;;;;;;12.47;42.79;91844.97;6163712;23;20043;-87
2024/03/27 04:35:39;;;;;;;0.60;0.20;;;;;;;12.55;42.72;91839.19;6188203;23;20068;-88
2024/03/27 04:38:05;;;;;;;0.32;0.10;;;;;;;12.59;42.59;91836.81;6137701;23;20016;-87
2024/03/27 04:40:31;;;;;;;0.10;0.10;;;;;;;12.34;43.17;91817.72;6161838;23;20009;-88
2024/03/27 04:45:21;;;;;;;0.70;0.30;;;;;;;12.33;43.30;91790.09;6210333;23;20020;-88
2024/03/27 04:47:47;;;;;;;1.48;1.17;;;;;;;12.32;43.41;91799.75;6162699;23;20249;-88
2024/03/27 04:50:15;;;;;;;0.60;0.50;;;;;;;12.17;43.71;91817.31;6138926;23;20082;-87
2024/03/27 04:55:07;;;;;;;0.10;0.10;;;;;;;12.52;43.12;91818.88;6235639;22;20013;-88
2024/03/27 04:57:32;;;;;;;0.50;0.20;;;;;;;12.40;43.20;91785.34;6188559;23;20024;-87
2024/03/27 05:00:00;;;;;;;0.30;0.20;;;;;;;12.54;43.08;91797.75;6163217;23;19997;-87
2024/03/27 05:02:26;;;;;;;0.20;0.20;;;;;;;12.71;42.33;91800.72;6139937;23;20004;-88
2024/03/27 05:22:57;;;;;;;0.30;0.30;;;;;;;13.10;41.18;91752.91;6210564;23;20040;-87
2024/03/27 05:25:25;;;;;;;0.88;0.30;;;;;;;13.00;41.83;91745.16;6187557;23;20012;-86
2024/03/27 05:27:51;;;;;;;0.50;0.43;;;;;;;12.64;42.84;91750.72;6212373;23;20008;-87
2024/03/27 05:35:26;;;;;;;0.82;0.20;;;;;;;13.04;41.65;91733.13;6220581;23;20024;-87
2024/03/27 05:37:54;;;;;;;0.25;0.20;;;;;;;13.20;41.49;91703.19;6217920;23;20081;-88
2024/03/27 05:40:19;;;;;;;0.68;0.20;;;;;;;13.41;40.83;91729.84;6193422;23;20015;-87
2024/03/27 05:42:45;;;;;;;0.63;0.10;;;;;;;13.36;41.17;91735.13;6192853;23;20012;-87
2024/03/27 05:52:46;;;;;;;0.22;0.10;;;;;;;13.68;40.66;91744.13;6242935;23;20020;-86
2024/03/27 05:55:14;;;;;;;1.20;0.20;;;;;;;13.51;41.78;91760.28;6192176;23;20019;-86
2024/03/27 05:57:40;;;;;;;0.30;0.20;;;;;;;13.76;41.12;91747.94;6217267;23;20000;-86
2024/03/27 06:00:09;;;;;;;0.75;0.20;;;;;;;14.01;40.67;91746.81;6191588;23;20083;-87
2024/03/27 06:05:00;;;;;;;0.90;0.20;;;;;;;16.21;36.93;91723.69;6185092;23;20039;-87
2024/03/27 06:27:19;;;;;;;0.60;0.40;;;;;;;20.52;29.49;91773.75;6203717;23;20035;-87
2024/03/27 06:45:47;;;;;;;2.45;0.60;;;;;;;23.58;26.71;91775.69;6194335;23;20050;-86
2024/03/27 06:48:21;;;;;;;1.73;0.70;;;;;;;25.39;24.58;91796.97;6184256;23;20127;-87
2024/03/27 06:50:53;;;;;;;2.35;1.00;;;;;;;26.25;23.00;91803.66;6184352;23;20008;-86
2024/03/27 06:53:19;;;;;;;2.10;1.30;;;;;;;25.78;23.97;91802.16;6184645;23;20014;-86
2024/03/27 06:58:13;;;;;;;2.00;1.20;;;;;;;26.91;21.04;91815.59;6175690;23;20025;-86
2024/03/27 07:00:38;;;;;;;2.80;0.82;;;;;;;26.91;22.25;91815.59;6159404;23;20008;-86
2024/03/27 07:03:04;;;;;;;2.40;1.40;;;;;;;25.75;22.70;91828.38;6160174;23;20039;-87
2024/03/27 07:05:30;;;;;;;2.60;1.40;;;;;;;25.85;22.80;91836.88;6140937;23;20096;-86
2024/03/27 07:07:55;;;;;;;3.05;1.52;;;;;;;26.67;22.27;91848.84;6185396;23;20015;-86
2024/03/27 07:10:21;;;;;;;4.35;2.10;;;;;;;26.50;22.31;91834.09;6183205;23;20008;-87
2024/03/27 07:12:50;;;;;;;4.32;2.03;;;;;;;26.41;22.58;91825.59;6195865;23;20008;-86
2024/03/27 07:15:15;;;;;;;4.28;1.75;;;;;;;25.91;23.81;91830.13;6160440;23;20027;-86
2024/03/27 07:17:42;;;;;;;1.85;1.00;;;;;;;26.18;23.00;91827.53;6158878;23;20035;-86
2024/03/27 07:20:08;;;;;;;2.17;1.50;;;;;;;26.02;23.41;91854.31;6134859;23;20005;-87
2024/03/27 07:22:34;;;;;;;2.47;1.20;;;;;;;24.27;25.79;91847.84;6184292;23;20075;-87
2024/03/27 07:24:59;;;;;;;3.90;1.50;;;;;;;24.47;26.01;91846.00;6183644;23;20032;-87
2024/03/27 07:30:00;;;;;;;5.47;1.60;;;;;;;24.35;25.17;91870.00;6185532;23;20025;-86
2024/03/27 07:32:28;;;;;;;1.40;1.10;;;;;;;23.84;25.39;91865.44;6134821;23;20015;-86
2024/03/27 07:34:54;;;;;;;3.40;1.50;;;;;;;23.42;26.30;91856.03;6184718;23;20009;-87
2024/03/27 07:37:21;;;;;;;2.05;1.25;;;;;;;22.67;27.43;91853.19;6159572;23;20008;-87
2024/03/27 07:42:21;;;;;;;2.45;1.45;;;;;;;24.87;24.13;91858.25;6216358;23;20020;-86
2024/03/27 07:44:49;;;;;;;4.07;1.83;;;;;;;23.20;27.24;91851.25;6189408;23;20023;-87
2024/03/27 07:47:15;;;;;;;3.30;1.30;;;;;;;24.15;26.03;91875.25;6190036;23;20016;-86
2024/03/27 07:52:21;;;;;;;2.47;1.35;;;;;;;25.58;22.68;91884.72;6208023;23;20028;-86
2024/03/27 07:54:47;;;;;;;2.90;1.50;;;;;;;25.27;24.06;91891.00;6184183;23;20008;-87
2024/03/27 07:57:12;;;;;;;4.65;1.58;;;;;;;24.84;25.16;91896.16;6159315;23;20011;-87
2024/03/27 07:59:38;;;;;;;3.13;1.25;;;;;;;25.02;25.60;91874.47;6134820;23;20031;-87
2024/03/27 08:02:04;;;;;;;2.40;1.50;;;;;;;25.90;24.55;91895.94;6159749;23;20016;-86
2024/03/27 08:04:30;;;;;;;2.35;1.35;;;;;;;26.39;23.20;91891.00;6159580;23;20020;-86
2024/03/27 08:06:55;;;;;;;2.83;1.50;;;;;;;26.11;22.39;91884.88;6159402;23;20012;-87
2024/03/27 08:11:46;;;;;;;2.92;1.65;;;;;;;23.30;25.98;91906.44;6209132;23;20131;-87
2024/03/27 08:14:11;;;;;;;4.20;2.00;;;;;;;22.54;28.18;91921.28;6135008;23;20012;-87
2024/03/27 08:16:42;;;;;;;3.20;1.90;;;;;;;21.90;29.80;91936.69;6159624;23;20103;-87
2024/03/27 08:19:07;;;;;;;3.10;1.60;;;;;;;20.80;30.57;91929.81;6160580;23;20019;-86
2024/03/27 08:21:33;;;;;;;3.17;1.65;;;;;;;20.49;31.88;91938.84;6180533;23;20013;-88
2024/03/27 08:23:58;;;;;;;2.40;1.60;;;;;;;19.58;31.96;91942.72;6156358;23;20024;-87
2024/03/27 08:26:25;;;;;;;2.10;1.55;;;;;;;18.58;33.53;91944.38;6132176;23;20013;-87
2024/03/27 08:28:50;;;;;;;2.67;1.60;;;;;;;18.28;34.36;91959.97;6181144;23;20032;-87
2024/03/27 08:31:16;;;;;;;2.28;1.70;;;;;;;17.31;35.90;91957.91;6181366;23;20004;-87
2024/03/27 08:33:44;;;;;;;3.38;1.70;;;;;;;16.90;36.66;91969.31;6184210;23;20040;-87
2024/03/27 08:38:48;;;;;;;3.30;2.05;;;;;;;15.26;40.05;91962.59;6151074;23;20028;-87
2024/03/27 08:41:14;;;;;;;2.72;1.90;;;;;;;15.20;40.29;91974.97;6127262;23;20009;-86
2024/03/27 08:46:05;;;;;;;4.40;2.60;;;;;;;14.71;42.47;91967.59;6209893;23;20028;-86
2024/03/27 08:48:35;;;;;;;4.97;2.58;;;;;;;14.76;42.74;91973.53;6161689;23;20001;-86
2024/03/27 08:51:00;;;;;;;4.72;3.05;;;;;;;14.74;43.13;91967.78;6161753;23;20012;-86
2024/03/27 08:53:26;;;;;;;6.82;3.40;;;;;;;14.82;43.42;91980.22;6137402;23;20104;-86
2024/03/27 08:55:52;;;;;;;6.07;2.92;;;;;;;14.75;44.26;91984.25;6162037;23;20005;-86
2024/03/27 08:58:18;;;;;;;5.65;2.83;;;;;;;14.56;44.75;91990.22;6161738;23;20087;-86
2024/03/27 09:00:43;;;;;;;6.47;3.47;;;;;;;14.64;45.54;91999.31;6161590;23;20023;-86
2024/03/27 09:03:09;;;;;;;4.22;3.10;;;;;;;14.96;45.03;91990.75;6186451;23;20012;-86
2024/03/27 09:05:36;;;;;;;5.97;3.15;;;;;;;15.22;44.10;91993.03;6186246;23;20065;-87
2024/03/27 09:08:06;;;;;;;4.72;3.22;;;;;;;15.49;43.68;92000.19;6137956;23;20004;-87
2024/03/27 09:10:31;;;;;;;;;;;;;;;15.86;42.74;92016.94;6187130;23;19992;-87
2024/03/27 09:12:57;;;;;;;5.05;3.40;;;;;;;15.74;43.48;92014.75;6161826;23;19908;-86
2024/03/27 09:15:22;;;;;;;7.78;3.47;;;;;;;16.09;43.29;92014.41;6186337;23;20036;-85
2024/03/27 09:17:48;;;;;;;4.60;3.60;;;;;;;16.39;44.28;92013.06;6136532;23;20036;-87
2024/03/27 09:20:13;;;;;;;5.82;3.72;;;;;;;16.57;43.76;92014.06;6161263;23;20012;-88
2024/03/27 09:22:39;;;;;;;5.35;4.32;;;;;;;16.48;44.41;92021.06;6137343;23;20068;-88
2024/03/27 12:45:43;;;;;;;1.10;0.98;;;;;;;11.33;57.13;92383.34;6216991;22;20052;-87
